Aviation Digital Data Service (ADDS)

Output produced by METARs form (0324 UTC 26 March 2017)
found at http://www.aviationweather.gov/adds/metars/
 
KDOV 260258Z AUTO 08009KT 10SM SCT100 09/09 A3028 RMK AO2 SLP257 T00880088 52027 $
TAF KDOV 260001Z 2600/2706 09012G18KT 9999 FEW015 SCT050 QNH3019INS 
     BECMG 2608/2609 07012KT 9999 BKN015 OVC050 QNH3028INS 
     BECMG 2614/2615 08012KT 9000 -RA BKN007 OVC015 QNH3033INS 
     BECMG 2618/2619 08012KT 9999 NSW OVC006 QNH3023INS 
     BECMG 2704/2705 10007KT 3200 BR OVC006 QNH3018INS TX13/2600Z TN07/2612Z